McGuire AFB, NJ

8:27 AM EDT on May 26, 2017 (GMT -0400)
McGuire Air Force Base

Weather History for KWRI - December, 2013

Change the Weather History Date:

Sunday, December 15, 2013

  Actual Average Record
Temperature  
Mean Temperature 40 °F -  
Max Temperature 50 °F 45 °F 86 °F (2003)
Min Temperature 29 °F 27 °F 14 °F (2005)
Degree Days  
Heating Degree Days 25    
Moisture  
Dew Point 35 °F    
Average Humidity 90    
Maximum Humidity 100    
Minimum Humidity 56    
Precipitation  
Precipitation 0.10 in - - ()
Sea Level Pressure  
Sea Level Pressure 29.62 in    
Wind  
Wind Speed 9 mph (West)    
Max Wind Speed 18 mph    
Max Gust Speed 28 mph    
Visibility 8 miles    
Events Rain    
Averages and records for this station are not official NWS values.
T = Trace of Precipitation, MM = Missing Value Source: NWS Daily Summary

Daily Weather History Graph

Daily Weather History Graph

Search for Another Location

Airport or City:

Trip Planner

Search our weather history database for the weather conditions in past years. The results will help you decide how hot, cold, wet, or windy it might be!

Date:

Astronomy

Dec. 15, 2013 Rise Set
Actual Time 7:13 AM EST 4:34 PM EST
Civil Twilight 6:42 AM EST 5:04 PM EST
Nautical Twilight 6:08 AM EST 5:38 PM EST
Astronomical Twilight 5:35 AM EST 6:11 PM EST
Moon 3:36 PM EST (12/15) 5:27 AM EST (12/15)
Length of Visible Light 10h 21m
Length of Day
9h 20m
Waxing Gibbous, 97% of the Moon is Illuminated
Dec 15
Waxing Gibbous
Dec 17
Full
Dec 25
Last Quarter
Jan 1
New
Jan 7
First Quarter

Hourly Weather History & Observations

Time (EST) Temp. Windchill Dew Point Humidity Pressure Visibility Wind Dir Wind Speed Gust Speed Precip Events Conditions
12:01 AM 48.2 °F - 48.2 °F 100% 29.65 in 8.0 mi East 8.1 mph - N/A Rain Light Rain
12:07 AM 48.2 °F - 48.2 °F 100% 29.64 in 6.0 mi East 8.1 mph - N/A Rain Light Rain
12:16 AM 48.2 °F - 48.2 °F 100% 29.62 in 5.0 mi East 10.4 mph - N/A Rain Light Rain
12:28 AM 50.0 °F - 50.0 °F 100% 29.60 in 5.0 mi ESE 8.1 mph - N/A Rain Light Rain
12:34 AM 50.0 °F - 50.0 °F 100% 29.59 in 5.0 mi ESE 9.2 mph - N/A Rain Light Rain
12:43 AM 50.0 °F - 50.0 °F 100% 29.57 in 4.0 mi East 6.9 mph - N/A Rain Rain
12:55 AM 50.0 °F - 50.0 °F 100% 29.57 in 4.0 mi Variable 4.6 mph - N/A Rain Light Rain
12:58 AM 50.4 °F - 50.0 °F 99% 29.58 in 4.0 mi West 5.8 mph - 0.08 in Rain Light Rain
1:04 AM 48.2 °F - 46.4 °F 93% 29.56 in 5.0 mi North 5.8 mph - N/A Rain Light Rain
1:07 AM 44.6 °F 43.1 °F 44.6 °F 100% 29.56 in 5.0 mi Variable 3.5 mph - N/A Rain Light Rain
1:13 AM 44.6 °F 43.1 °F 44.6 °F 100% 29.56 in 4.0 mi NNE 3.5 mph - N/A Rain Light Rain
1:22 AM 44.6 °F 42.2 °F 42.8 °F 93% 29.54 in 3.0 mi NNW 4.6 mph - N/A   Light Drizzle
1:25 AM 44.6 °F 41.4 °F 42.8 °F 93% 29.53 in 2.5 mi NNW 5.8 mph - N/A Rain Light Rain
1:31 AM 44.6 °F 41.4 °F 42.8 °F 93% 29.55 in 3.0 mi NNW 5.8 mph - N/A Rain Light Rain
1:34 AM 44.6 °F 40.2 °F 42.8 °F 93% 29.54 in 4.0 mi NNW 8.1 mph - N/A Rain Light Rain
1:35 AM 42.8 °F 37.0 °F 42.8 °F 100% 29.54 in 5.0 mi NW 10.4 mph - N/A   Overcast
1:38 AM 42.8 °F 37.0 °F 42.8 °F 100% 29.54 in 5.0 mi NW 10.4 mph - N/A   Overcast
1:41 AM 42.8 °F 36.2 °F 41.0 °F 93% 29.55 in 5.0 mi WNW 12.7 mph 18.4 mph N/A   Overcast
1:42 AM 41.0 °F 34.7 °F 41.0 °F 100% 29.54 in 5.0 mi NW 10.4 mph 18.4 mph N/A Rain Light Rain
1:48 AM 39.2 °F 31.6 °F 39.2 °F 100% 29.55 in 6.0 mi West 12.7 mph - N/A Rain Light Rain
1:54 AM 37.4 °F 30.8 °F 37.4 °F 100% 29.53 in 5.0 mi WNW 9.2 mph - N/A Rain Light Rain
1:57 AM 37.4 °F 29.8 °F 37.4 °F 100% 29.53 in 5.0 mi West 11.5 mph - N/A Rain Light Rain
1:58 AM 37.4 °F 29.8 °F 37.4 °F 100% 29.56 in 5.0 mi West 11.5 mph - 0.02 in Rain Light Rain
2:04 AM 35.6 °F 28.0 °F 35.6 °F 100% 29.54 in 4.0 mi West 10.4 mph - N/A Rain Light Rain
2:12 AM 35.6 °F 27.5 °F 35.6 °F 100% 29.53 in 5.0 mi WNW 11.5 mph - N/A   Overcast
2:24 AM 35.6 °F 26.6 °F 35.6 °F 100% 29.54 in 5.0 mi WNW 13.8 mph - N/A   Overcast
2:28 AM 35.6 °F 26.2 °F 33.8 °F 93% 29.54 in 5.0 mi WNW 15.0 mph - N/A Rain Light Rain
2:31 AM 35.6 °F 26.6 °F 33.8 °F 93% 29.54 in 5.0 mi WNW 13.8 mph - N/A Rain Light Rain
2:40 AM 33.8 °F 25.3 °F 33.8 °F 100% 29.53 in 5.0 mi NW 11.5 mph - N/A Rain Light Rain
2:46 AM 33.8 °F 26.4 °F 33.8 °F 100% 29.54 in 8.0 mi NW 9.2 mph - N/A   Overcast
2:49 AM 33.8 °F 25.8 °F 33.8 °F 100% 29.55 in 9.0 mi WNW 10.4 mph - N/A   Overcast
2:58 AM 34.7 °F 26.9 °F 34.3 °F 99% 29.56 in 10.0 mi WNW 10.4 mph - 0.00 in   Overcast
3:58 AM 34.3 °F 27.7 °F 34.2 °F 99% 29.56 in 10.0 mi West 8.1 mph - N/A   Overcast
4:01 AM 33.8 °F 25.8 °F 33.8 °F 100% 29.54 in 9.0 mi WNW 10.4 mph - N/A   Overcast
4:46 AM 33.8 °F 27.0 °F 32.0 °F 93% 29.56 in 10.0 mi West 8.1 mph - N/A   Overcast
4:58 AM 33.8 °F 27.0 °F 33.6 °F 99% 29.57 in 10.0 mi WNW 8.1 mph - N/A   Overcast
5:16 AM 33.8 °F 28.6 °F 32.0 °F 93% 29.55 in 10.0 mi West 5.8 mph - N/A   Overcast
5:19 AM 33.8 °F 28.6 °F 32.0 °F 93% 29.55 in 10.0 mi WNW 5.8 mph - N/A   Overcast
5:43 AM 33.8 °F 27.0 °F 32.0 °F 93% 29.57 in 8.0 mi West 8.1 mph - N/A   Overcast
5:58 AM 33.6 °F 28.4 °F 33.4 °F 99% 29.57 in 7.0 mi West 5.8 mph - N/A   Overcast
6:22 AM 32.0 °F 23.6 °F 32.0 °F 100% 29.58 in 7.0 mi West 10.4 mph - N/A   Overcast
6:25 AM 32.0 °F 23.6 °F 32.0 °F 100% 29.59 in 7.0 mi West 10.4 mph - N/A   Overcast
6:34 AM 32.0 °F 24.2 °F 32.0 °F 100% 29.59 in 10.0 mi West 9.2 mph - N/A   Overcast
6:58 AM 31.8 °F 23.3 °F 31.6 °F 99% 29.61 in 10.0 mi West 10.4 mph - N/A   Overcast
7:58 AM 31.3 °F 23.9 °F 31.1 °F 99% 29.61 in 10.0 mi West 8.1 mph - N/A   Overcast
8:58 AM 30.9 °F 22.2 °F 30.6 °F 99% 29.62 in 10.0 mi West 10.4 mph - N/A   Overcast
9:10 AM 32.0 °F 23.6 °F 32.0 °F 100% 29.60 in 10.0 mi West 10.4 mph - N/A   Overcast
9:22 AM 32.0 °F 23.6 °F 32.0 °F 100% 29.60 in 10.0 mi West 10.4 mph - N/A   Overcast
9:58 AM 32.4 °F 25.3 °F 31.5 °F 96% 29.65 in 10.0 mi West 8.1 mph - N/A   Overcast
10:01 AM 32.0 °F 24.2 °F 32.0 °F 100% 29.62 in 10.0 mi WSW 9.2 mph - N/A   Overcast
10:34 AM 35.6 °F 28.0 °F 32.0 °F 87% 29.63 in 10.0 mi West 10.4 mph - N/A   Mostly Cloudy
10:37 AM 35.6 °F 27.1 °F 32.0 °F 87% 29.63 in 10.0 mi West 12.7 mph - N/A   Mostly Cloudy
10:43 AM 35.6 °F 28.0 °F 32.0 °F 87% 29.63 in 10.0 mi WSW 10.4 mph - N/A   Scattered Clouds
10:55 AM 37.4 °F 30.3 °F 33.8 °F 87% 29.62 in 10.0 mi WSW 10.4 mph - N/A   Mostly Cloudy
10:58 AM 37.4 °F 29.8 °F 33.8 °F 87% 29.63 in 10.0 mi West 11.5 mph - N/A   Mostly Cloudy
11:04 AM 37.4 °F 28.2 °F 33.8 °F 87% 29.62 in 10.0 mi West 16.1 mph 20.7 mph N/A   Scattered Clouds
11:31 AM 39.2 °F 30.2 °F 32.0 °F 75% 29.63 in 10.0 mi West 17.3 mph 27.6 mph N/A   Mostly Cloudy
11:58 AM 38.8 °F 29.4 °F 32.9 °F 79% 29.65 in 10.0 mi WNW 18.4 mph 26.5 mph N/A   Overcast
12:37 PM 39.2 °F 30.2 °F 32.0 °F 75% 29.64 in 10.0 mi West 17.3 mph 25.3 mph N/A   Overcast
12:58 PM 38.5 °F 29.9 °F 31.8 °F 77% 29.65 in 10.0 mi West 15.0 mph 23.0 mph N/A   Overcast
1:58 PM 39.6 °F 31.3 °F 30.9 °F 71% 29.68 in 10.0 mi West 15.0 mph 23.0 mph N/A   Overcast
2:31 PM 39.2 °F 30.2 °F 32.0 °F 75% 29.69 in 10.0 mi West 17.3 mph 19.6 mph N/A   Overcast
2:58 PM 39.6 °F 31.7 °F 30.4 °F 70% 29.70 in 10.0 mi West 13.8 mph 23.0 mph N/A   Overcast
3:58 PM 39.4 °F 30.4 °F 28.2 °F 64% 29.75 in 10.0 mi West 17.3 mph 26.5 mph N/A   Overcast
4:58 PM 37.4 °F 29.8 °F 26.6 °F 65% 29.77 in 10.0 mi West 11.5 mph 18.4 mph N/A   Clear
5:58 PM 37.8 °F 31.3 °F 25.5 °F 61% 29.80 in 10.0 mi West 9.2 mph - N/A   Mostly Cloudy
6:58 PM 37.0 °F 27.7 °F 22.8 °F 56% 29.83 in 10.0 mi West 16.1 mph - N/A   Overcast
7:58 PM 35.1 °F 27.9 °F 22.6 °F 61% 29.85 in 10.0 mi West 9.2 mph - N/A   Partly Cloudy
8:58 PM 33.3 °F 27.9 °F 23.4 °F 67% 29.87 in 10.0 mi WNW 5.8 mph - N/A   Scattered Clouds
9:58 PM 33.1 °F 26.1 °F 20.1 °F 59% 29.89 in 10.0 mi West 8.1 mph - N/A   Mostly Cloudy
10:58 PM 30.4 °F 22.9 °F 20.3 °F 66% 29.88 in 10.0 mi SW 8.1 mph - N/A   Clear
11:58 PM 29.5 °F 22.5 °F 19.9 °F 68% 29.88 in 10.0 mi SW 6.9 mph - N/A   Clear